Leukimmi — SY3734 — position and weather

sailwx.info

Track history (hours):
 
Tides and Currents Weather Stations Pressure Air Temp Water Temp Dewpoint Dewpoint Depression Visibility Wind Speed Wind Dir Waves Ship Positions

Leukimmi

Last reported at 2017-Jun-04 16:47 UTC. Time now 2017-Aug-20 15:22 UTC.
Position N 39°25' E 020°06'.
Warning: this ship's position is months out of date.

Length 65 m; draft 2.5 m.

Type: Passenger vessel. MMSI: 237671800.

Date/timePositionNaut miles runAvg speedWind from/ knotsBaromVisibWave heightAir tempDewpointWater temp
2017-Jun-04 16:47N 39°25' E 020°06'9 1.1
2017-Jun-04 08:48N 39°30' E 020°16'8 0.2
2017-Jun-02 13:29N 39°26' E 020°07'6 9.5
2017-Jun-02 12:51N 39°30' E 020°12'3 4.6
2017-Jun-02 12:17N 39°30' E 020°16'7 7.2
2017-Jun-02 11:17N 39°26' E 020°08'2 7.1
2017-Jun-02 11:00N 39°25' E 020°06'0 0.0
2017-Jun-02 10:17N 39°25' E 020°06'0 0.0
2017-Jun-02 09:50N 39°25' E 020°06'2 5.3
2017-Jun-02 09:27N 39°26' E 020°07'7 8.8
2017-Jun-02 08:38N 39°30' E 020°16'0 0.6
2017-Jun-02 08:21N 39°30' E 020°16'8 3.4
2017-Jun-02 05:57N 39°26' E 020°07'  
Track history (hours):
 
Tides and Currents Weather Stations Pressure Air Temp Water Temp Dewpoint Dewpoint Depression Visibility Wind Speed Wind Dir Waves Ship Positions

Leukimmi

Last reported at 2017-Jun-04 16:47 UTC. Time now 2017-Aug-20 15:22 UTC.
Position N 39°25' E 020°06'.
Warning: this ship's position is months out of date.

Length 65 m; draft 2.5 m.

Type: Passenger vessel. MMSI: 237671800.

Date/timePositionNaut miles runAvg speedWind from/ knotsBaromVisibWave heightAir tempDewpointWater temp
2017-Jun-04 16:47N 39°25' E 020°06'9 1.1
2017-Jun-04 08:48N 39°30' E 020°16'8 0.2
2017-Jun-02 13:29N 39°26' E 020°07'6 9.5
2017-Jun-02 12:51N 39°30' E 020°12'3 4.6
2017-Jun-02 12:17N 39°30' E 020°16'7 7.2
2017-Jun-02 11:17N 39°26' E 020°08'2 7.1
2017-Jun-02 11:00N 39°25' E 020°06'0 0.0
2017-Jun-02 10:17N 39°25' E 020°06'0 0.0
2017-Jun-02 09:50N 39°25' E 020°06'2 5.3
2017-Jun-02 09:27N 39°26' E 020°07'7 8.8
2017-Jun-02 08:38N 39°30' E 020°16'0 0.6
2017-Jun-02 08:21N 39°30' E 020°16'8 3.4
2017-Jun-02 05:57N 39°26' E 020°07'  

Dump ship's entire track history